Ana Sayfa
METAR-TAF:

METAR-TAF

Havaalanları :

Los Alamos, New Mexico, Amerika Birleşik Devletleri

Enlem: 35-53N, Boylam: 106-17W, yükseklik: 2179 m

Güncel hava durumu gözlemi

Rapor saat 01:55 UTC de 19 dakika önce yapıldı.
Rüzgar batı/güneybatıdan 18 kt ve 23 kt'a kadar ani rüzgarlar
Sıcaklık 26°C
Nem 21%
Basınç 1029 hPa
Görüş mesafesi: 16.1 km
7000 ft yükseklikte az bulutlu
14000 ft yükseklikte çok bulutlu

METAR: KLAM 140155Z AUTO 25018G23KT 10SM FEW070 OVC140 26/02 A3038 RMK AO2 T02580023 $

Saat: 20:14 (02:14 UTC)


TAF: eksik

4.000'den fazla havaalanı için hava durumu gözlemleri ve tahminleri (METAR ve TAF raporları).

Kullanılabilir istasyonlar harita üzerinde sarı ve kırmızı noktalarla gösterilir.

İstasyonun adını görmek için fareyi noktanın üzerinde gezdirin.

Sonrasında hava gözlem ve tahminlerini görmek için tıklayın.

Haritayı değiştirmek için: yaklaştırmak için siyah artı işaretli yeşil düğmeye ve uzaklaştırmak için de eksi işaretli düğmeye hızla tıklayın; bitişik haritalar için yeşil okları kullanın.


METAR-TAF: